Time;durP1;ratioP1;P1;durP2;ratioP2;P2;SDS_P1;SDS_P2;PMS_P1;PMS_P2;Temp;Humidity;BMP_temperature;BMP_pressure;BME280_temperature;BME280_humidity;BME280_pressure;Samples;Min_cycle;Max_cycle;Signal;HPM_P1;HPM_P2
2022/11/18 00:01:30;;;;;;;17.23;12.77;;;2.50;92.90;;;;;;5075479;28;20191;-87
2022/11/18 00:03:56;;;;;;;14.50;10.07;;;2.40;92.90;;;;;;5076284;28;20171;-86
2022/11/18 00:06:24;;;;;;;10.73;7.60;;;2.40;93.00;;;;;;5074984;28;20545;-86
2022/11/18 00:08:50;;;;;;;13.60;9.87;;;2.40;92.90;;;;;;5074774;28;20171;-86
2022/11/18 00:14:21;;;;;;;18.97;13.70;;;2.40;92.90;;;;;;5076741;28;20173;-87
2022/11/18 00:16:51;;;;;;;8.70;7.20;;;2.40;93.00;;;;;;5075637;28;20209;-86
2022/11/18 00:19:17;;;;;;;23.00;14.83;;;2.40;93.10;;;;;;5075971;28;20172;-86
2022/11/18 00:21:43;;;;;;;16.30;12.03;;;2.40;93.00;;;;;;5076004;28;20182;-86
2022/11/18 00:24:09;;;;;;;17.93;11.73;;;2.40;93.10;;;;;;5074445;28;20183;-86
2022/11/18 00:26:35;;;;;;;20.87;14.80;;;2.30;93.10;;;;;;5074521;28;20223;-86
2022/11/18 00:29:00;;;;;;;22.97;15.00;;;2.30;93.20;;;;;;5075907;28;20174;-87
2022/11/18 00:31:26;;;;;;;20.20;13.53;;;2.30;93.20;;;;;;5074809;28;20552;-87
2022/11/18 00:33:51;;;;;;;17.13;10.93;;;2.30;93.20;;;;;;5074776;28;20188;-87
2022/11/18 00:36:17;;;;;;;21.37;12.73;;;2.30;93.20;;;;;;5075827;28;20198;-88
2022/11/18 00:38:42;;;;;;;10.13;8.20;;;2.30;93.20;;;;;;5074445;28;20175;-87
2022/11/18 00:41:10;;;;;;;21.27;14.10;;;2.30;93.20;;;;;;5075686;28;20243;-87
2022/11/18 00:43:37;;;;;;;17.30;11.37;;;2.30;93.20;;;;;;5075463;28;20235;-87
2022/11/18 00:46:03;;;;;;;21.77;13.37;;;2.30;93.20;;;;;;5074207;28;20293;-87
2022/11/18 00:48:29;;;;;;;18.87;12.17;;;2.30;93.20;;;;;;5074770;28;20202;-87
2022/11/18 00:50:57;;;;;;;16.27;12.03;;;2.30;93.20;;;;;;5075371;28;20693;-87
2022/11/18 00:53:24;;;;;;;14.97;10.20;;;2.30;93.20;;;;;;5075382;28;20261;-87
2022/11/18 00:55:49;;;;;;;24.30;15.80;;;2.30;93.30;;;;;;5074226;28;20229;-88
2022/11/18 00:58:15;;;;;;;19.17;12.10;;;2.30;93.30;;;;;;5074306;28;20218;-87
2022/11/18 01:00:42;;;;;;;18.60;13.07;;;2.30;93.30;;;;;;5074220;28;20179;-87
2022/11/18 01:03:09;;;;;;;16.77;10.80;;;2.30;93.30;;;;;;5074417;28;20242;-87
2022/11/18 01:05:36;;;;;;;19.20;12.57;;;2.30;93.30;;;;;;5074997;28;20237;-87
2022/11/18 01:08:01;;;;;;;19.37;11.47;;;2.30;93.40;;;;;;5075301;28;20688;-87
2022/11/18 01:10:27;;;;;;;16.30;10.93;;;2.20;93.30;;;;;;5074912;28;20256;-87
2022/11/18 01:15:42;;;;;;;12.43;7.93;;;2.20;93.30;;;;;;5075228;28;20688;-87
2022/11/18 01:18:08;;;;;;;14.53;10.30;;;2.30;93.40;;;;;;5073757;28;20711;-87
2022/11/18 01:20:34;;;;;;;12.77;8.60;;;2.20;93.40;;;;;;5073615;28;20263;-86
2022/11/18 01:23:00;;;;;;;17.77;10.70;;;2.20;93.40;;;;;;5074319;28;20207;-86
2022/11/18 01:25:26;;;;;;;15.83;10.53;;;2.20;93.40;;;;;;5073171;28;20248;-87
2022/11/18 01:27:51;;;;;;;22.40;14.00;;;2.20;93.30;;;;;;5073407;28;20637;-87
2022/11/18 01:30:17;;;;;;;29.00;18.20;;;2.20;93.40;;;;;;5074734;28;20542;-86
2022/11/18 01:32:43;;;;;;;22.90;14.33;;;2.20;93.40;;;;;;5073331;28;20644;-87
2022/11/18 01:35:09;;;;;;;20.43;12.23;;;2.20;93.40;;;;;;5074620;28;20206;-87
2022/11/18 01:37:35;;;;;;;11.77;7.00;;;2.20;93.30;;;;;;5073268;28;20179;-86
2022/11/18 01:40:01;;;;;;;19.83;12.13;;;2.20;93.40;;;;;;5074570;28;20264;-86
2022/11/18 01:42:26;;;;;;;21.83;13.83;;;2.20;93.30;;;;;;5073097;28;20282;-86
2022/11/18 01:44:58;;;;;;;22.87;14.33;;;2.10;93.30;;;;;;5073037;28;20212;-86
2022/11/18 01:47:35;;;;;;;23.27;14.43;;;2.20;93.30;;;;;;5074381;28;20156;-86
2022/11/18 01:50:02;;;;;;;22.23;14.67;;;2.10;93.30;;;;;;5072910;28;20221;-87
2022/11/18 01:52:29;;;;;;;17.77;10.77;;;2.10;93.30;;;;;;5072820;28;20637;-85
2022/11/18 01:55:01;;;;;;;24.80;14.17;;;2.10;93.20;;;;;;5072812;28;20206;-86
2022/11/18 01:57:29;;;;;;;14.20;9.83;;;2.00;93.20;;;;;;5074210;28;20597;-85
2022/11/18 01:59:57;;;;;;;17.73;12.30;;;2.00;93.00;;;;;;5074002;28;20185;-86
2022/11/18 02:02:25;;;;;;;19.47;13.37;;;2.00;93.00;;;;;;5072725;28;20199;-86
2022/11/18 02:04:53;;;;;;;13.50;8.13;;;2.00;93.00;;;;;;5072504;28;20199;-85
2022/11/18 02:07:20;;;;;;;19.30;13.80;;;2.00;93.00;;;;;;5073082;28;20183;-86
2022/11/18 02:09:46;;;;;;;22.27;13.67;;;2.00;92.90;;;;;;5073942;28;20634;-86
2022/11/18 02:12:12;;;;;;;28.77;18.77;;;2.00;92.90;;;;;;5072654;28;20184;-86
2022/11/18 02:14:42;;;;;;;23.33;14.67;;;2.00;93.00;;;;;;5073934;28;20697;-86
2022/11/18 02:17:44;;;;;;;25.00;17.47;;;2.00;92.90;;;;;;5073743;28;20191;-86
2022/11/18 02:20:25;;;;;;;14.30;10.83;;;2.00;93.00;;;;;;5072575;28;20217;-86
2022/11/18 02:23:03;;;;;;;23.57;14.37;;;2.00;93.00;;;;;;5073549;28;20200;-86
2022/11/18 02:25:50;;;;;;;13.77;8.83;;;2.00;93.00;;;;;;5072331;28;20198;-86
2022/11/18 02:28:39;;;;;;;14.43;8.93;;;2.00;93.00;;;;;;5072399;28;20612;-86
2022/11/18 02:31:38;;;;;;;23.63;14.10;;;1.90;93.00;;;;;;5073602;28;20200;-86
2022/11/18 02:34:16;;;;;;;21.43;13.77;;;1.90;93.00;;;;;;5065911;28;20183;-86
2022/11/18 02:37:13;;;;;;;16.77;11.97;;;1.90;93.00;;;;;;5072372;28;20171;-86
2022/11/18 02:39:46;;;;;;;16.23;12.23;;;1.90;93.00;;;;;;5072250;28;20216;-86
2022/11/18 02:42:14;;;;;;;28.43;18.37;;;1.80;93.00;;;;;;5073173;28;20191;-86
2022/11/18 02:44:44;;;;;;;19.13;13.33;;;1.80;93.00;;;;;;5072111;28;20202;-86
2022/11/18 02:47:14;;;;;;;15.63;10.33;;;1.90;93.10;;;;;;5073428;28;20201;-86
2022/11/18 02:49:51;;;;;;;21.90;14.47;;;1.80;93.10;;;;;;5073448;28;20182;-86
2022/11/18 02:52:19;;;;;;;23.07;14.17;;;1.80;93.10;;;;;;5073556;28;20163;-86
2022/11/18 02:54:47;;;;;;;24.63;13.13;;;1.80;93.10;;;;;;5073461;28;20728;-86
2022/11/18 02:57:14;;;;;;;20.60;14.07;;;1.80;93.20;;;;;;5072052;28;20198;-86
2022/11/18 02:59:40;;;;;;;20.93;12.13;;;1.80;93.10;;;;;;5073418;28;20179;-86
2022/11/18 03:02:05;;;;;;;16.10;11.00;;;1.70;93.10;;;;;;5071982;28;20635;-86
2022/11/18 03:04:33;;;;;;;28.57;17.73;;;1.70;93.20;;;;;;5073844;28;20193;-86
2022/11/18 03:07:01;;;;;;;28.63;18.87;;;1.80;93.20;;;;;;5072113;28;20609;-86
2022/11/18 03:09:32;;;;;;;26.73;18.27;;;1.70;93.20;;;;;;5072018;28;20173;-87
2022/11/18 03:12:20;;;;;;;30.50;18.27;;;1.70;93.30;;;;;;5072589;28;20167;-86
2022/11/18 03:15:20;;;;;;;31.23;19.80;;;1.70;93.30;;;;;;5073130;28;20281;-86
2022/11/18 03:18:15;;;;;;;24.97;16.47;;;1.70;93.30;;;;;;5073231;28;20260;-86
2022/11/18 03:20:54;;;;;;;11.50;9.13;;;1.70;93.40;;;;;;5071967;28;20226;-86
2022/11/18 03:23:29;;;;;;;28.57;18.93;;;1.60;93.30;;;;;;5071919;28;20674;-86
2022/11/18 03:26:04;;;;;;;30.63;14.63;;;1.60;93.40;;;;;;5072993;28;20572;-86
2022/11/18 03:28:43;;;;;;;30.27;19.83;;;1.60;93.40;;;;;;5073373;28;20195;-87
2022/11/18 03:31:32;;;;;;;26.23;17.40;;;1.60;93.40;;;;;;5071909;28;20176;-86
2022/11/18 03:34:26;;;;;;;13.90;10.07;;;1.60;93.40;;;;;;5072969;28;20169;-86
2022/11/18 03:36:56;;;;;;;18.30;14.00;;;1.60;93.40;;;;;;5076840;28;20176;-86
2022/11/18 03:39:24;;;;;;;27.97;18.30;;;1.60;93.50;;;;;;5075531;28;20171;-87
2022/11/18 03:42:01;;;;;;;28.30;18.27;;;1.60;93.50;;;;;;5076824;28;20170;-87
2022/11/18 03:44:31;;;;;;;21.57;14.27;;;1.70;93.50;;;;;;5076690;28;20171;-86
2022/11/18 03:47:05;;;;;;;28.97;18.77;;;1.60;93.50;;;;;;5076549;28;20648;-86
2022/11/18 03:49:54;;;;;;;30.20;20.30;;;1.60;93.50;;;;;;5075475;28;20162;-86
2022/11/18 03:52:28;;;;;;;17.20;12.60;;;1.60;93.60;;;;;;5075811;28;20575;-86
2022/11/18 03:54:56;;;;;;;28.00;18.00;;;1.60;93.60;;;;;;5076450;28;20700;-86
2022/11/18 03:57:30;;;;;;;19.77;14.67;;;1.60;93.60;;;;;;5076470;28;20541;-86
2022/11/18 04:00:06;;;;;;;17.60;11.40;;;1.60;93.60;;;;;;5076527;28;20167;-86
2022/11/18 04:02:32;;;;;;;24.07;16.37;;;1.60;93.60;;;;;;5076215;28;20187;-86
2022/11/18 04:05:00;;;;;;;22.50;14.60;;;1.60;93.50;;;;;;5074897;28;20195;-86
2022/11/18 04:07:33;;;;;;;27.93;19.47;;;1.60;93.50;;;;;;5076155;28;20223;-86
2022/11/18 04:10:24;;;;;;;21.50;14.20;;;1.60;93.50;;;;;;5076462;28;20200;-86
2022/11/18 04:13:09;;;;;;;20.40;13.47;;;1.60;93.50;;;;;;5074763;28;20175;-86
2022/11/18 04:15:40;;;;;;;20.13;11.40;;;1.50;93.50;;;;;;5074874;28;20206;-86
2022/11/18 04:18:06;;;;;;;24.33;16.83;;;1.50;93.40;;;;;;5074690;28;20208;-87
2022/11/18 04:20:32;;;;;;;27.63;16.50;;;1.50;93.40;;;;;;5075924;28;20178;-86
2022/11/18 04:22:58;;;;;;;20.27;14.03;;;1.50;93.40;;;;;;5075278;28;20578;-86
2022/11/18 04:25:24;;;;;;;26.00;17.97;;;1.50;93.30;;;;;;5074830;28;20202;-86
2022/11/18 04:27:50;;;;;;;26.50;17.33;;;1.50;93.30;;;;;;5075361;28;20180;-86
2022/11/18 04:30:16;;;;;;;24.17;18.13;;;1.50;93.30;;;;;;5074462;28;20182;-86
2022/11/18 04:32:41;;;;;;;21.30;15.67;;;1.50;93.30;;;;;;5075650;28;20201;-86
2022/11/18 04:35:07;;;;;;;31.23;19.50;;;1.50;93.30;;;;;;5074342;28;20660;-86
2022/11/18 04:37:33;;;;;;;26.43;18.33;;;1.60;93.30;;;;;;5075451;28;20178;-86
2022/11/18 04:39:58;;;;;;;16.53;11.30;;;1.60;93.30;;;;;;5074295;28;20238;-86
2022/11/18 04:42:24;;;;;;;22.93;14.27;;;1.50;93.30;;;;;;5074282;28;20676;-86
2022/11/18 04:44:50;;;;;;;27.77;19.13;;;1.50;93.30;;;;;;5074057;28;20234;-86
2022/11/18 04:47:15;;;;;;;27.27;18.17;;;1.50;93.30;;;;;;5074267;28;20178;-86
2022/11/18 04:49:41;;;;;;;25.33;16.40;;;1.50;93.30;;;;;;5074050;28;20174;-86
2022/11/18 04:52:06;;;;;;;17.83;11.97;;;1.50;93.20;;;;;;5075587;28;20185;-86
2022/11/18 04:54:32;;;;;;;25.67;16.70;;;1.50;93.20;;;;;;5073943;28;20202;-86
2022/11/18 04:56:57;;;;;;;27.23;19.37;;;1.50;93.10;;;;;;5073764;28;20185;-86
2022/11/18 04:59:26;;;;;;;25.00;16.90;;;1.50;93.10;;;;;;5075463;28;20163;-86
2022/11/18 05:01:52;;;;;;;24.80;16.97;;;1.50;93.10;;;;;;5074974;28;20209;-86
2022/11/18 05:04:21;;;;;;;28.60;18.30;;;1.60;93.10;;;;;;5073671;28;20178;-86
2022/11/18 05:06:47;;;;;;;25.33;17.27;;;1.50;93.10;;;;;;5074978;28;20178;-86
2022/11/18 05:09:13;;;;;;;28.03;19.67;;;1.50;93.10;;;;;;5074058;28;20201;-86
2022/11/18 05:14:26;;;;;;;28.47;20.00;;;1.50;93.10;;;;;;5075078;28;20169;-86
2022/11/18 05:16:53;;;;;;;29.80;21.57;;;1.50;93.10;;;;;;5073547;28;20334;-86
2022/11/18 05:19:18;;;;;;;28.53;17.53;;;1.50;93.10;;;;;;5073364;28;20335;-86
2022/11/18 05:21:44;;;;;;;24.93;17.50;;;1.50;93.00;;;;;;5073419;28;20202;-86
2022/11/18 05:24:10;;;;;;;21.77;15.37;;;1.50;93.00;;;;;;5073424;28;20178;-86
2022/11/18 05:26:35;;;;;;;27.27;17.27;;;1.50;93.00;;;;;;5073428;28;20178;-86
2022/11/18 05:29:01;;;;;;;29.73;23.67;;;1.50;93.00;;;;;;5074638;28;20170;-86
2022/11/18 05:31:26;;;;;;;34.10;23.73;;;1.50;93.00;;;;;;5075143;28;20254;-86
2022/11/18 05:33:52;;;;;;;27.37;19.27;;;1.50;93.10;;;;;;5074528;28;20261;-86
2022/11/18 05:36:19;;;;;;;29.97;20.30;;;1.50;93.10;;;;;;5073110;28;20258;-86
2022/11/18 05:38:45;;;;;;;28.17;19.70;;;1.40;93.10;;;;;;5073207;28;20186;-86
2022/11/18 05:43:09;;;;;;;26.47;17.67;;;1.40;93.10;;;;;;5074363;28;20569;-86
2022/11/18 05:43:57;;;;;;;32.47;21.50;;;1.40;93.10;;;;;;5074059;28;20725;-86
2022/11/18 05:46:23;;;;;;;37.87;22.77;;;1.40;93.10;;;;;;5072930;28;20553;-86
2022/11/18 05:48:49;;;;;;;29.93;19.30;;;1.40;93.10;;;;;;5074116;28;20231;-86
2022/11/18 05:51:15;;;;;;;31.03;21.07;;;1.40;93.00;;;;;;5073073;28;20558;-86
2022/11/18 05:53:41;;;;;;;26.37;17.57;;;1.30;93.00;;;;;;5072809;28;20183;-86
2022/11/18 05:56:27;;;;;;;31.70;21.60;;;1.30;93.00;;;;;;5072729;28;20213;-86
2022/11/18 05:58:53;;;;;;;31.03;20.57;;;1.30;93.00;;;;;;5073406;28;20522;-86
2022/11/18 06:01:24;;;;;;;22.77;14.73;;;1.30;93.00;;;;;;5073906;28;20264;-86
2022/11/18 06:03:50;;;;;;;28.77;18.60;;;1.30;92.90;;;;;;5074024;28;20189;-86
2022/11/18 06:06:19;;;;;;;14.20;11.00;;;1.30;92.90;;;;;;5072536;28;20198;-86
2022/11/18 06:09:04;;;;;;;28.33;18.73;;;1.30;92.80;;;;;;5072643;28;20527;-85
2022/11/18 06:11:36;;;;;;;25.23;17.13;;;1.30;92.70;;;;;;5072521;28;20177;-86
2022/11/18 06:14:13;;;;;;;26.80;17.27;;;1.30;92.80;;;;;;5073759;28;20171;-86
2022/11/18 06:16:43;;;;;;;33.37;20.63;;;1.30;92.80;;;;;;5073702;28;20199;-86
2022/11/18 06:19:09;;;;;;;23.10;14.13;;;1.30;92.80;;;;;;5073614;28;20183;-86
2022/11/18 06:21:34;;;;;;;24.60;16.47;;;1.30;92.80;;;;;;5073332;28;20194;-86
2022/11/18 06:24:01;;;;;;;34.47;19.60;;;1.30;92.80;;;;;;5073448;28;20217;-86
2022/11/18 06:26:27;;;;;;;38.57;26.03;;;1.30;92.80;;;;;;5072272;28;20206;-86
2022/11/18 06:28:54;;;;;;;31.67;21.63;;;1.30;92.80;;;;;;5072263;28;20265;-86
2022/11/18 06:31:23;;;;;;;33.87;22.20;;;1.30;92.80;;;;;;5072202;28;20185;-86
2022/11/18 06:33:49;;;;;;;36.67;22.90;;;1.30;92.90;;;;;;5072343;28;20193;-86
2022/11/18 06:36:14;;;;;;;28.37;19.73;;;1.20;92.80;;;;;;5072070;28;20202;-86
2022/11/18 06:38:40;;;;;;;31.70;21.10;;;1.30;92.90;;;;;;5072210;28;20262;-86
2022/11/18 06:41:05;;;;;;;34.30;23.43;;;1.20;92.90;;;;;;5073485;28;20189;-86
2022/11/18 06:43:43;;;;;;;36.00;21.93;;;1.20;92.90;;;;;;5072073;28;20234;-86
2022/11/18 06:48:59;;;;;;;24.07;17.60;;;1.20;92.80;;;;;;5073390;28;20165;-86
2022/11/18 06:51:25;;;;;;;35.50;20.47;;;1.20;92.80;;;;;;5073208;28;20173;-85
2022/11/18 06:53:51;;;;;;;27.93;17.17;;;1.20;92.70;;;;;;5072077;28;20193;-85
2022/11/18 06:56:18;;;;;;;31.73;19.90;;;1.20;92.70;;;;;;5073076;28;20200;-86
2022/11/18 06:58:44;;;;;;;33.23;22.03;;;1.10;92.60;;;;;;5071962;28;20202;-86
2022/11/18 07:01:12;;;;;;;22.63;16.23;;;1.10;92.60;;;;;;5073392;28;20229;-86
2022/11/18 07:03:39;;;;;;;20.53;12.03;;;1.20;92.50;;;;;;5071825;28;20207;-85
2022/11/18 07:06:05;;;;;;;22.53;15.23;;;1.10;92.40;;;;;;5071944;28;20281;-85
2022/11/18 07:08:32;;;;;;;23.83;14.57;;;1.10;92.40;;;;;;5071815;28;20725;-85
2022/11/18 07:10:58;;;;;;;33.37;21.87;;;1.10;92.20;;;;;;5076084;28;20211;-85
2022/11/18 07:13:23;;;;;;;29.03;17.87;;;1.10;92.10;;;;;;5075802;28;20174;-86
2022/11/18 07:15:49;;;;;;;28.90;15.63;;;1.10;92.20;;;;;;5075890;28;20292;-86
2022/11/18 07:18:14;;;;;;;34.13;22.40;;;1.10;92.10;;;;;;5077324;28;20182;-86
2022/11/18 07:20:40;;;;;;;14.43;11.17;;;1.10;92.20;;;;;;5077289;28;20183;-85
2022/11/18 07:23:06;;;;;;;26.50;13.43;;;1.10;92.20;;;;;;5077161;28;20197;-85
2022/11/18 07:25:31;;;;;;;37.53;22.77;;;1.10;91.90;;;;;;5077189;28;20200;-86
2022/11/18 07:27:58;;;;;;;31.20;19.77;;;1.10;91.90;;;;;;5075786;28;20174;-85
2022/11/18 07:30:23;;;;;;;37.37;21.83;;;1.00;91.90;;;;;;5076030;28;20546;-86
2022/11/18 07:32:49;;;;;;;26.43;17.60;;;1.10;92.00;;;;;;5075902;28;20185;-86
2022/11/18 07:35:16;;;;;;;16.43;11.77;;;1.10;92.10;;;;;;5077001;28;20800;-85
2022/11/18 07:37:41;;;;;;;25.23;15.93;;;1.00;92.00;;;;;;5076799;28;20178;-86
2022/11/18 07:40:07;;;;;;;20.87;15.00;;;1.00;91.90;;;;;;5077039;28;20250;-85
2022/11/18 07:42:41;;;;;;;32.63;19.23;;;1.00;91.80;;;;;;5075797;28;20202;-85
2022/11/18 07:45:09;;;;;;;37.37;22.97;;;1.10;91.80;;;;;;5076917;28;20187;-86
2022/11/18 07:47:34;;;;;;;28.57;13.67;;;1.10;91.90;;;;;;5075612;28;20178;-85
2022/11/18 07:50:00;;;;;;;28.47;18.07;;;1.10;92.00;;;;;;5075521;28;20206;-85
2022/11/18 07:52:25;;;;;;;28.67;18.40;;;1.10;92.00;;;;;;5075560;28;20220;-85
2022/11/18 07:54:51;;;;;;;32.27;19.47;;;1.00;91.90;;;;;;5077053;28;20202;-86
2022/11/18 07:57:16;;;;;;;29.63;17.87;;;1.00;91.90;;;;;;5075348;28;20281;-86
2022/11/18 07:59:42;;;;;;;27.47;17.27;;;1.10;91.90;;;;;;5076686;28;20737;-85
2022/11/18 08:02:11;;;;;;;34.93;22.30;;;1.10;91.90;;;;;;5076609;28;20632;-86
2022/11/18 08:04:36;;;;;;;32.33;19.30;;;1.20;92.00;;;;;;5076070;28;20249;-86
2022/11/18 08:07:02;;;;;;;24.50;18.07;;;1.20;92.00;;;;;;5075369;28;20553;-86
2022/11/18 08:09:28;;;;;;;29.23;16.43;;;1.10;91.90;;;;;;5076500;28;20648;-86
2022/11/18 08:11:53;;;;;;;18.90;12.17;;;1.10;91.70;;;;;;5076552;28;20197;-86
2022/11/18 08:14:20;;;;;;;34.83;21.03;;;1.10;91.60;;;;;;5075208;28;20185;-86
2022/11/18 08:16:46;;;;;;;31.57;19.53;;;1.20;91.60;;;;;;5076467;28;20170;-86
2022/11/18 08:19:11;;;;;;;30.43;19.03;;;1.10;91.30;;;;;;5075513;28;20546;-86
2022/11/18 08:21:37;;;;;;;24.80;15.03;;;1.20;91.10;;;;;;5075398;28;20175;-87
2022/11/18 08:24:03;;;;;;;36.30;21.30;;;1.20;91.00;;;;;;5076285;28;20580;-85
2022/11/18 08:26:28;;;;;;;38.57;24.27;;;1.20;91.00;;;;;;5076471;28;20201;-85
2022/11/18 08:28:54;;;;;;;33.63;21.70;;;1.30;91.00;;;;;;5077057;28;20541;-86
2022/11/18 08:31:23;;;;;;;36.67;23.37;;;1.30;90.90;;;;;;5076538;28;20180;-86
2022/11/18 08:34:06;;;;;;;34.93;21.53;;;1.30;90.70;;;;;;5076899;28;20178;-85
2022/11/18 08:36:36;;;;;;;29.20;18.90;;;1.30;90.60;;;;;;5075401;28;20241;-86
2022/11/18 08:39:05;;;;;;;30.90;18.20;;;1.30;90.30;;;;;;5076953;28;20182;-85
2022/11/18 08:41:36;;;;;;;24.80;16.60;;;1.30;90.20;;;;;;5078345;28;20184;-85
2022/11/18 08:44:03;;;;;;;15.87;10.67;;;1.30;90.10;;;;;;5075823;28;20207;-86
2022/11/18 08:46:29;;;;;;;23.27;15.23;;;1.20;89.60;;;;;;5075167;28;20198;-86
2022/11/18 08:48:55;;;;;;;30.47;18.10;;;1.30;89.50;;;;;;5076351;28;20169;-86
2022/11/18 08:51:21;;;;;;;24.73;14.73;;;1.30;89.50;;;;;;5077049;28;20660;-85
2022/11/18 08:53:46;;;;;;;25.57;14.73;;;1.30;89.50;;;;;;5075396;28;20181;-85
2022/11/18 08:56:15;;;;;;;21.37;12.33;;;1.30;89.00;;;;;;5076996;28;20194;-86
2022/11/18 08:58:41;;;;;;;24.17;16.67;;;1.30;89.20;;;;;;5075260;28;20197;-86
2022/11/18 09:01:07;;;;;;;33.73;18.83;;;1.30;88.90;;;;;;5077187;28;20183;-85
2022/11/18 09:03:33;;;;;;;10.80;8.63;;;1.30;89.00;;;;;;5076024;28;20723;-86
2022/11/18 09:06:09;;;;;;;22.07;15.73;;;1.30;88.70;;;;;;5076936;28;20194;-86
2022/11/18 09:08:35;;;;;;;26.57;17.73;;;1.30;88.80;;;;;;5074752;28;20232;-86
2022/11/18 09:11:15;;;;;;;24.87;15.80;;;1.40;88.70;;;;;;5076550;28;20173;-85
2022/11/18 09:13:41;;;;;;;13.60;9.57;;;1.30;88.50;;;;;;5076745;28;20185;-85
2022/11/18 09:16:07;;;;;;;21.20;14.67;;;1.30;88.10;;;;;;5074615;28;20202;-86
2022/11/18 09:18:34;;;;;;;25.10;17.60;;;1.40;88.30;;;;;;5074850;28;20265;-85
2022/11/18 09:21:06;;;;;;;21.97;16.50;;;1.40;88.00;;;;;;5076006;28;20190;-86
2022/11/18 09:23:33;;;;;;;23.80;17.37;;;1.30;87.60;;;;;;5077312;28;20544;-86
2022/11/18 09:26:02;;;;;;;14.60;11.37;;;1.40;87.20;;;;;;5076714;28;20191;-86
2022/11/18 09:28:29;;;;;;;16.00;12.20;;;1.40;87.10;;;;;;5077168;28;20236;-85
2022/11/18 09:30:54;;;;;;;22.17;15.20;;;1.40;86.90;;;;;;5078626;28;20535;-85
2022/11/18 09:33:21;;;;;;;14.20;10.03;;;1.40;86.60;;;;;;5076430;28;20271;-85
2022/11/18 09:35:47;;;;;;;16.40;12.03;;;1.40;86.20;;;;;;5074754;28;20196;-86
2022/11/18 09:38:12;;;;;;;20.20;15.23;;;1.40;85.80;;;;;;5077380;28;20240;-86
2022/11/18 09:41:04;;;;;;;19.70;15.33;;;1.50;86.10;;;;;;5077306;28;20186;-85
2022/11/18 09:43:56;;;;;;;17.87;12.73;;;1.50;86.10;;;;;;5076867;28;20191;-85
2022/11/18 09:46:51;;;;;;;19.47;9.20;;;1.50;85.10;;;;;;5075949;28;20618;-85
2022/11/18 09:49:24;;;;;;;11.93;8.63;;;1.50;84.60;;;;;;5074900;28;20588;-85
2022/11/18 09:51:51;;;;;;;8.63;7.20;;;1.50;84.10;;;;;;5076119;28;20675;-85
2022/11/18 09:54:24;;;;;;;12.73;9.70;;;1.50;83.90;;;;;;5075844;28;20644;-86
2022/11/18 09:56:51;;;;;;;11.20;8.00;;;1.50;83.80;;;;;;5076888;28;20177;-85
2022/11/18 09:59:20;;;;;;;8.73;6.90;;;1.50;83.90;;;;;;5075464;28;20246;-85
2022/11/18 10:01:47;;;;;;;6.70;5.40;;;1.60;83.80;;;;;;5072955;28;20174;-84
2022/11/18 10:04:17;;;;;;;11.93;9.77;;;1.50;82.60;;;;;;5072782;28;20183;-86
2022/11/18 10:06:44;;;;;;;7.70;6.83;;;1.60;82.90;;;;;;5073890;28;20250;-84
2022/11/18 10:09:40;;;;;;;9.27;8.03;;;1.60;83.20;;;;;;5073026;28;20174;-85
2022/11/18 10:12:22;;;;;;;11.47;8.63;;;1.70;83.70;;;;;;5072791;28;20180;-86
2022/11/18 10:15:15;;;;;;;9.07;7.77;;;1.70;83.60;;;;;;5074317;28;20187;-85
2022/11/18 10:18:01;;;;;;;18.43;12.27;;;1.70;83.30;;;;;;5072758;28;20197;-85
2022/11/18 10:20:38;;;;;;;12.33;8.53;;;1.70;83.60;;;;;;5073163;28;20172;-85
2022/11/18 10:23:11;;;;;;;22.53;11.97;;;1.70;82.70;;;;;;5072723;28;20592;-86
2022/11/18 10:25:37;;;;;;;7.10;5.97;;;1.70;83.30;;;;;;5072594;28;20215;-84
2022/11/18 10:28:24;;;;;;;4.73;4.33;;;1.70;82.60;;;;;;5073990;28;20180;-84
2022/11/18 10:30:51;;;;;;;14.30;10.93;;;1.70;81.70;;;;;;5074397;28;20159;-84
2022/11/18 10:33:22;;;;;;;10.73;8.03;;;1.80;82.30;;;;;;5074056;28;20281;-85
2022/11/18 10:35:48;;;;;;;11.00;8.83;;;1.80;83.00;;;;;;5072983;28;20200;-85
2022/11/18 10:38:14;;;;;;;11.90;10.20;;;1.90;83.20;;;;;;5073570;28;20176;-85
2022/11/18 10:40:56;;;;;;;10.90;9.33;;;1.90;83.30;;;;;;5073493;28;20235;-85
2022/11/18 10:43:47;;;;;;;11.67;9.70;;;2.00;83.30;;;;;;5071897;28;20258;-85
2022/11/18 10:46:34;;;;;;;6.17;5.57;;;2.00;82.90;;;;;;5072618;28;20287;-84
2022/11/18 10:49:09;;;;;;;5.70;5.03;;;2.00;81.30;;;;;;5072381;28;20231;-84
2022/11/18 10:51:40;;;;;;;13.87;7.03;;;2.00;81.70;;;;;;5072450;28;20166;-85
2022/11/18 10:54:21;;;;;;;8.97;7.57;;;2.00;81.30;;;;;;5073741;28;20159;-85
2022/11/18 10:57:01;;;;;;;7.40;6.60;;;2.10;81.80;;;;;;5073454;28;20265;-84
2022/11/18 10:59:32;;;;;;;12.17;7.03;;;2.10;80.70;;;;;;5073764;28;20171;-84
2022/11/18 11:02:29;;;;;;;10.23;7.53;;;2.10;80.60;;;;;;5073201;28;20178;-84
2022/11/18 11:04:55;;;;;;;7.80;7.00;;;2.10;80.70;;;;;;5073401;28;20198;-84
2022/11/18 11:07:27;;;;;;;6.50;5.80;;;2.30;81.40;;;;;;5073178;28;20654;-83
2022/11/18 11:10:08;;;;;;;4.90;4.43;;;2.20;80.90;;;;;;5071960;28;20179;-85
2022/11/18 11:12:37;;;;;;;4.33;3.93;;;2.10;79.80;;;;;;5072078;28;20178;-84
2022/11/18 11:15:12;;;;;;;6.93;6.23;;;2.10;79.50;;;;;;5073117;28;20281;-85
2022/11/18 11:20:51;;;;;;;7.53;6.17;;;2.10;80.20;;;;;;5073393;28;20603;-85
2022/11/18 11:23:17;;;;;;;4.83;4.43;;;2.20;80.30;;;;;;5071747;28;20245;-85
2022/11/18 11:26:22;;;;;;;7.47;6.63;;;2.20;80.40;;;;;;5071620;28;20218;-85
2022/11/18 11:29:16;;;;;;;7.97;6.93;;;2.20;79.90;;;;;;5071027;28;20232;-85
2022/11/18 11:32:11;;;;;;;5.10;4.70;;;2.20;80.30;;;;;;5073267;28;20216;-85
2022/11/18 11:34:48;;;;;;;11.03;6.13;;;2.10;79.20;;;;;;5072829;28;20207;-84
2022/11/18 11:37:40;;;;;;;5.20;4.80;;;2.10;78.70;;;;;;5072956;28;20167;-84
2022/11/18 11:40:36;;;;;;;9.93;6.07;;;2.20;79.60;;;;;;5071543;28;20175;-85
2022/11/18 11:43:54;;;;;;;7.23;6.53;;;2.10;78.50;;;;;;5068968;28;20211;-84
2022/11/18 11:46:25;;;;;;;3.87;3.63;;;2.10;77.90;;;;;;5049034;28;20222;-84
2022/11/18 11:49:17;;;;;;;6.50;4.93;;;2.10;77.80;;;;;;5071508;28;20190;-84
2022/11/18 11:51:51;;;;;;;7.80;5.73;;;2.10;75.80;;;;;;5072608;28;20537;-84
2022/11/18 11:54:46;;;;;;;5.47;4.97;;;2.10;77.00;;;;;;5071284;28;20642;-84
2022/11/18 11:57:49;;;;;;;5.83;5.10;;;2.10;77.00;;;;;;5075604;28;20668;-84
2022/11/18 12:00:17;;;;;;;26.37;6.97;;;2.10;76.10;;;;;;5075844;28;20179;-84
2022/11/18 12:03:41;;;;;;;6.37;5.70;;;2.10;76.10;;;;;;5076133;28;20262;-84
2022/11/18 12:06:09;;;;;;;10.33;5.43;;;2.20;76.70;;;;;;5057787;28;20206;-84
2022/11/18 12:08:37;;;;;;;11.43;6.37;;;2.20;76.20;;;;;;5076127;28;20181;-84
2022/11/18 12:11:16;;;;;;;6.13;5.53;;;2.20;76.10;;;;;;5075746;28;20176;-84
2022/11/18 12:13:58;;;;;;;8.30;6.53;;;2.20;75.90;;;;;;5074886;28;20174;-85
2022/11/18 12:16:48;;;;;;;10.63;6.40;;;2.30;76.40;;;;;;5075018;28;20745;-85
2022/11/18 12:19:19;;;;;;;7.17;5.57;;;2.30;75.10;;;;;;5074803;28;20617;-85
2022/11/18 12:21:44;;;;;;;4.97;4.57;;;2.30;75.80;;;;;;5074781;28;20233;-85
2022/11/18 12:24:24;;;;;;;6.53;5.93;;;2.30;73.90;;;;;;5076209;28;20188;-84
2022/11/18 12:26:50;;;;;;;9.93;7.43;;;2.30;74.30;;;;;;5074786;28;20170;-85
2022/11/18 12:29:19;;;;;;;8.90;6.70;;;2.40;75.10;;;;;;5076468;28;20571;-86
2022/11/18 12:31:46;;;;;;;6.40;4.43;;;2.40;75.10;;;;;;5077198;28;20531;-85
2022/11/18 12:34:32;;;;;;;9.73;6.83;;;2.40;75.40;;;;;;5076507;28;20171;-85
2022/11/18 12:37:23;;;;;;;9.13;7.27;;;2.40;74.70;;;;;;5077315;28;20197;-84
2022/11/18 12:39:55;;;;;;;11.93;6.67;;;2.40;75.30;;;;;;5074572;28;20197;-86
2022/11/18 12:45:40;;;;;;;5.53;5.13;;;2.40;74.70;;;;;;5076003;28;20244;-85
2022/11/18 12:48:30;;;;;;;8.57;6.57;;;2.40;73.60;;;;;;5075835;28;20202;-86
2022/11/18 12:50:58;;;;;;;6.80;5.40;;;2.40;74.00;;;;;;5075878;28;20263;-86
2022/11/18 12:53:40;;;;;;;6.90;6.30;;;2.40;74.80;;;;;;5074177;28;20171;-86
2022/11/18 12:56:25;;;;;;;7.87;7.07;;;2.40;74.80;;;;;;5075484;28;20218;-86
2022/11/18 12:58:55;;;;;;;9.33;6.70;;;2.40;74.90;;;;;;5075566;28;20187;-86
2022/11/18 13:01:24;;;;;;;8.03;6.97;;;2.50;75.10;;;;;;5075619;28;20179;-86
2022/11/18 13:03:51;;;;;;;6.80;5.40;;;2.50;74.10;;;;;;5076218;28;20234;-84
2022/11/18 13:06:25;;;;;;;8.80;7.13;;;2.50;74.10;;;;;;5073980;28;20290;-85
2022/11/18 13:09:00;;;;;;;6.47;5.83;;;2.50;73.80;;;;;;5073868;28;20551;-85
2022/11/18 13:11:53;;;;;;;4.63;4.33;;;2.50;73.80;;;;;;5074648;28;20185;-86
2022/11/18 13:20:40;;;;;;;6.70;6.10;;;2.50;73.20;;;;;;5075417;28;20170;-89
2022/11/18 13:26:01;;;;;;;8.87;6.93;;;2.50;74.00;;;;;;5074635;28;20217;-86
2022/11/18 13:28:45;;;;;;;9.43;5.50;;;2.50;74.30;;;;;;5075313;28;20190;-85
2022/11/18 13:31:26;;;;;;;8.47;6.87;;;2.50;73.40;;;;;;5075271;28;20262;-85